Time;durP1;ratioP1;P1;durP2;ratioP2;P2;SDS_P1;SDS_P2;PMS_P1;PMS_P2;Temp;Humidity;BMP_temperature;BMP_pressure;BME280_temperature;BME280_humidity;BME280_pressure;Samples;Min_cycle;Max_cycle;Signal;HPM_P1;HPM_P2
2023/12/12 00:01:04;;;;;;;22.40;11.60;;;;;;;7.06;100.00;99036.27;214181;1294;139723;-91
2023/12/12 00:06:06;;;;;;;28.30;14.10;;;;;;;7.08;100.00;99038.61;214661;1292;100551;-91
2023/12/12 00:11:08;;;;;;;25.30;11.70;;;;;;;7.11;100.00;99043.63;213857;1292;141010;-91
2023/12/12 00:16:09;;;;;;;23.90;13.00;;;;;;;7.12;100.00;99045.57;214430;1292;138757;-90
2023/12/12 00:21:09;;;;;;;22.20;12.00;;;;;;;7.16;100.00;99052.70;215177;1292;140679;-91
2023/12/12 00:26:12;;;;;;;26.90;12.20;;;;;;;7.18;100.00;99054.19;217702;1292;138836;-91
2023/12/12 00:31:13;;;;;;;20.40;10.60;;;;;;;7.20;100.00;99050.67;215003;1293;140818;-91
2023/12/12 00:36:14;;;;;;;18.90;10.10;;;;;;;7.23;100.00;99054.90;216380;1293;97588;-90
2023/12/12 00:41:15;;;;;;;16.60;9.00;;;;;;;7.24;100.00;99056.78;216653;1292;140085;-91
2023/12/12 00:46:16;;;;;;;20.30;9.50;;;;;;;7.27;100.00;99063.60;215732;1291;138705;-92
2023/12/12 00:51:17;;;;;;;17.80;9.20;;;;;;;7.28;100.00;99069.86;213854;1296;139827;-90
2023/12/12 00:56:18;;;;;;;15.90;8.70;;;;;;;7.29;100.00;99074.93;213371;1295;138714;-91
2023/12/12 01:01:18;;;;;;;15.20;7.50;;;;;;;7.30;100.00;99088.70;212938;1293;140407;-90
2023/12/12 01:06:23;;;;;;;15.90;7.40;;;;;;;7.29;100.00;99089.87;213481;1296;112050;-89
2023/12/12 01:11:25;;;;;;;13.60;7.00;;;;;;;7.29;100.00;99094.17;213081;1292;140063;-90
2023/12/12 01:16:26;;;;;;;13.60;6.10;;;;;;;7.29;100.00;99098.23;213283;1292;139115;-90
2023/12/12 01:21:27;;;;;;;13.70;6.20;;;;;;;7.29;100.00;99103.86;214344;1292;140230;-90
2023/12/12 01:26:27;;;;;;;15.20;6.00;;;;;;;7.29;100.00;99100.02;213675;1294;139289;-89
2023/12/12 01:31:28;;;;;;;9.70;5.20;;;;;;;7.28;100.00;99111.05;213539;1294;141168;-88
2023/12/12 01:36:29;;;;;;;11.60;4.80;;;;;;;7.30;100.00;99111.98;213530;1290;139248;-89
2023/12/12 01:41:29;;;;;;;9.40;4.60;;;;;;;7.29;100.00;99112.55;213250;1293;140681;-88
2023/12/12 01:46:31;;;;;;;9.60;4.00;;;;;;;7.28;100.00;99114.65;214255;1292;139276;-88
2023/12/12 01:51:33;;;;;;;7.40;3.60;;;;;;;7.28;100.00;99121.05;213853;1293;139808;-89
2023/12/12 01:56:35;;;;;;;9.00;3.80;;;;;;;7.27;100.00;99123.25;214077;1296;139190;-89
2023/12/12 02:01:35;;;;;;;6.70;2.60;;;;;;;7.27;100.00;99122.55;213612;1292;140704;-88
2023/12/12 02:06:36;;;;;;;5.50;2.70;;;;;;;7.27;100.00;99123.01;214255;1295;140379;-88
2023/12/12 02:11:37;;;;;;;8.50;3.30;;;;;;;7.27;100.00;99124.10;214713;1294;140300;-89
2023/12/12 02:16:38;;;;;;;6.90;2.80;;;;;;;7.27;100.00;99128.02;214312;1293;138935;-88
2023/12/12 02:21:39;;;;;;;6.00;2.80;;;;;;;7.27;100.00;99126.84;215980;1292;139799;-89
2023/12/12 02:26:40;;;;;;;6.30;3.00;;;;;;;7.28;100.00;99129.42;217332;1292;139128;-89
2023/12/12 02:31:41;;;;;;;5.70;2.70;;;;;;;7.28;100.00;99140.92;214946;1292;140278;-88
2023/12/12 02:36:41;;;;;;;5.30;2.80;;;;;;;7.29;100.00;99152.25;213970;1293;139069;-89
2023/12/12 02:41:42;;;;;;;6.10;3.20;;;;;;;7.27;100.00;99160.77;213395;1293;141192;-90
2023/12/12 02:46:42;;;;;;;6.70;3.20;;;;;;;7.22;100.00;99174.11;213688;1293;139625;-87
2023/12/12 02:51:43;;;;;;;4.70;2.40;;;;;;;7.16;100.00;99193.16;212715;1293;140639;-87
2023/12/12 02:56:44;;;;;;;3.10;1.70;;;;;;;7.05;100.00;99207.11;213377;1292;139740;-89
2023/12/12 03:01:47;;;;;;;3.10;1.50;;;;;;;6.94;100.00;99228.61;212925;1293;139807;-91
2023/12/12 03:06:47;;;;;;;4.00;1.60;;;;;;;6.80;100.00;99254.77;213848;1293;139142;-92
2023/12/12 03:11:51;;;;;;;3.60;1.30;;;;;;;6.66;100.00;99268.71;213457;1294;139845;-95
2023/12/12 03:16:52;;;;;;;1.90;1.20;;;;;;;6.56;100.00;99285.89;213672;1294;139359;-91
2023/12/12 03:21:53;;;;;;;1.70;1.20;;;;;;;6.49;100.00;99304.34;213154;1293;140965;-92
2023/12/12 03:26:55;;;;;;;2.10;1.30;;;;;;;6.37;100.00;99321.86;214305;1294;139309;-91
2023/12/12 03:31:55;;;;;;;4.10;1.40;;;;;;;6.30;100.00;99332.48;213761;1296;139951;-92
2023/12/12 03:36:56;;;;;;;1.90;1.10;;;;;;;6.25;100.00;99342.27;214944;1290;139385;-93
2023/12/12 03:41:57;;;;;;;2.70;0.80;;;;;;;6.15;100.00;99351.60;214323;1293;141244;-94
2023/12/12 03:47:00;;;;;;;2.00;0.90;;;;;;;6.03;100.00;99367.15;214976;1294;139117;-93
2023/12/12 03:52:01;;;;;;;2.20;1.00;;;;;;;5.94;100.00;99376.95;214238;1293;140969;-95
2023/12/12 03:57:09;;;;;;;2.70;1.00;;;;;;;5.85;100.00;99390.17;215131;1292;139295;-96
2023/12/12 04:02:09;;;;;;;1.60;1.10;;;;;;;5.76;100.00;99397.73;214102;1292;140066;-92
2023/12/12 04:07:10;;;;;;;5.80;1.70;;;;;;;5.68;100.00;99407.14;216735;1292;139493;-92
2023/12/12 04:12:10;;;;;;;2.30;1.10;;;;;;;5.59;100.00;99416.08;216843;1291;140738;-93
2023/12/12 04:17:12;;;;;;;6.10;1.60;;;;;;;5.54;100.00;99423.94;215146;1294;139333;-92
2023/12/12 04:22:12;;;;;;;3.90;1.70;;;;;;;5.52;100.00;99431.01;213037;1296;140664;-91
2023/12/12 04:27:13;;;;;;;4.10;1.80;;;;;;;5.45;100.00;99430.12;213290;1292;139737;-90
2023/12/12 04:32:15;;;;;;;4.90;2.20;;;;;;;5.40;100.00;99433.47;212859;1293;140342;-92
2023/12/12 04:37:15;;;;;;;5.50;2.30;;;;;;;5.35;100.00;99438.14;213159;1296;139190;-92
2023/12/12 04:42:16;;;;;;;5.20;2.60;;;;;;;5.29;100.00;99438.91;212886;1293;139895;-91
2023/12/12 04:47:17;;;;;;;7.20;2.80;;;;;;;5.24;100.00;99446.61;213257;1293;139098;-92
2023/12/12 04:52:18;;;;;;;5.70;2.70;;;;;;;5.20;100.00;99448.73;212857;1294;140471;-90
2023/12/12 04:57:18;;;;;;;7.80;3.00;;;;;;;5.18;100.00;99456.80;213311;1293;139319;-91
2023/12/12 05:02:20;;;;;;;7.20;3.30;;;;;;;5.18;100.00;99464.36;212945;1293;140092;-91
2023/12/12 05:07:20;;;;;;;11.30;4.90;;;;;;;5.17;100.00;99477.66;213463;1293;140251;-93
2023/12/12 05:12:21;;;;;;;10.90;4.80;;;;;;;5.15;100.00;99482.86;213602;1294;140481;-92
2023/12/12 05:17:22;;;;;;;11.70;4.90;;;;;;;5.14;100.00;99489.23;214289;1294;138664;-93
2023/12/12 05:22:23;;;;;;;12.60;4.80;;;;;;;5.12;100.00;99496.45;214048;1297;140495;-93
2023/12/12 05:27:24;;;;;;;12.10;4.80;;;;;;;5.12;100.00;99498.31;214371;1294;138824;-92
2023/12/12 05:32:25;;;;;;;10.20;4.90;;;;;;;5.11;100.00;99505.48;213931;1293;140500;-91
2023/12/12 05:37:25;;;;;;;11.20;5.90;;;;;;;5.12;100.00;99509.76;214419;1293;138874;-90
2023/12/12 05:42:26;;;;;;;15.00;7.50;;;;;;;5.12;100.00;99517.41;214289;1292;140766;-91
2023/12/12 05:47:27;;;;;;;12.40;5.60;;;;;;;5.12;100.00;99526.14;214696;1293;98098;-92
2023/12/12 05:52:27;;;;;;;14.50;7.20;;;;;;;5.12;100.00;99532.76;215642;1293;139739;-90
2023/12/12 05:57:28;;;;;;;14.00;7.30;;;;;;;5.13;100.00;99541.34;217460;1293;139303;-91
2023/12/12 06:02:28;;;;;;;12.70;6.90;;;;;;;5.11;100.00;99547.63;215139;1292;140889;-91
2023/12/12 06:07:29;;;;;;;13.60;6.30;;;;;;;5.11;100.00;99552.98;213628;1293;138964;-90
2023/12/12 06:12:29;;;;;;;12.30;6.00;;;;;;;5.09;100.00;99559.27;213064;1295;140665;-91
2023/12/12 06:17:30;;;;;;;14.40;7.40;;;;;;;5.06;100.00;99565.67;213738;1297;97985;-90
2023/12/12 06:22:30;;;;;;;15.30;6.10;;;;;;;5.02;100.00;99572.69;213224;1292;140378;-90
2023/12/12 06:27:31;;;;;;;20.70;8.10;;;;;;;5.00;100.00;99578.88;214271;1294;140749;-90
2023/12/12 06:32:31;;;;;;;17.30;6.80;;;;;;;4.96;100.00;99582.39;213776;1294;141325;-89
2023/12/12 06:37:32;;;;;;;17.10;8.20;;;;;;;4.93;100.00;99593.14;214310;1292;139551;-88
2023/12/12 06:42:33;;;;;;;19.20;8.20;;;;;;;4.91;100.00;99599.65;213540;1293;141076;-89
2023/12/12 06:47:33;;;;;;;20.90;8.70;;;;;;;4.88;100.00;99599.61;213712;1294;97933;-88
2023/12/12 06:52:34;;;;;;;17.60;9.20;;;;;;;4.85;100.00;99604.06;213173;1292;140246;-91
2023/12/12 06:57:35;;;;;;;16.30;8.10;;;;;;;4.83;100.00;99613.03;213812;1294;139800;-90
2023/12/12 07:02:37;;;;;;;15.40;7.10;;;;;;;4.81;100.00;99620.79;213868;1294;140861;-89
2023/12/12 07:07:37;;;;;;;21.90;7.80;;;;;;;4.81;100.00;99627.56;214617;1292;139807;-91
2023/12/12 07:12:38;;;;;;;18.40;7.00;;;;;;;4.80;100.00;99632.98;214165;1292;141113;-90
2023/12/12 07:17:39;;;;;;;18.50;6.70;;;;;;;4.79;100.00;99637.48;215018;1294;97735;-89
2023/12/12 07:22:39;;;;;;;18.60;7.10;;;;;;;4.79;100.00;99640.44;214356;1296;140245;-89
2023/12/12 07:27:40;;;;;;;16.90;7.50;;;;;;;4.80;100.00;99651.91;215031;1293;138915;-91
2023/12/12 07:32:41;;;;;;;14.60;5.70;;;;;;;4.79;100.00;99659.59;214461;1292;140484;-91
2023/12/12 07:37:42;;;;;;;17.00;8.20;;;;;;;4.80;100.00;99661.56;215830;1294;138718;-92
2023/12/12 07:42:45;;;;;;;17.40;7.00;;;;;;;4.80;100.00;99670.21;216658;1293;140794;-90
2023/12/12 07:47:46;;;;;;;15.20;6.90;;;;;;;4.80;100.00;99680.02;216266;1292;97973;-90
2023/12/12 07:52:49;;;;;;;14.60;6.60;;;;;;;4.82;100.00;99681.48;213817;1294;140187;-90
2023/12/12 07:57:49;;;;;;;19.70;8.20;;;;;;;4.83;100.00;99679.33;214368;1296;138824;-93
2023/12/12 08:02:50;;;;;;;16.50;7.70;;;;;;;4.85;100.00;99686.15;213738;1293;140274;-90
2023/12/12 08:07:50;;;;;;;17.40;7.60;;;;;;;4.86;100.00;99685.52;214093;1295;138897;-91
2023/12/12 08:12:51;;;;;;;16.60;6.80;;;;;;;4.88;100.00;99686.77;213224;1293;159955;-90
2023/12/12 08:17:52;;;;;;;18.90;8.30;;;;;;;4.89;100.00;99688.40;213708;1293;98066;-91
2023/12/12 08:22:53;;;;;;;16.20;7.80;;;;;;;4.90;100.00;99690.45;213323;1296;140350;-91
2023/12/12 08:27:54;;;;;;;21.10;10.10;;;;;;;4.90;100.00;99694.43;213666;1296;140616;-92
2023/12/12 08:32:55;;;;;;;21.20;10.00;;;;;;;4.91;100.00;99697.49;213360;1294;140950;-91
2023/12/12 08:37:55;;;;;;;20.40;9.50;;;;;;;4.93;100.00;99698.06;213941;1294;139447;-91
2023/12/12 08:42:57;;;;;;;18.60;9.20;;;;;;;4.93;100.00;99706.98;214180;1293;141055;-91
2023/12/12 08:47:58;;;;;;;21.60;9.90;;;;;;;4.96;100.00;99710.20;215300;1296;96687;-91
2023/12/12 08:52:58;;;;;;;23.00;10.70;;;;;;;5.00;100.00;99714.67;214606;1294;140401;-92
2023/12/12 08:57:59;;;;;;;18.10;8.30;;;;;;;5.03;100.00;99724.32;215095;1294;138994;-91
2023/12/12 09:03:00;;;;;;;18.80;9.70;;;;;;;5.06;100.00;99724.92;214763;1294;140594;-93
2023/12/12 09:08:00;;;;;;;23.50;11.40;;;;;;;5.10;100.00;99727.44;214760;1294;141278;-91
2023/12/12 09:13:02;;;;;;;16.40;8.80;;;;;;;5.15;100.00;99732.52;214582;1294;140411;-92
2023/12/12 09:18:02;;;;;;;17.90;8.20;;;;;;;5.16;100.00;99734.65;215075;1294;97572;-91
2023/12/12 09:23:03;;;;;;;20.00;10.30;;;;;;;5.19;100.00;99735.02;215698;1294;140022;-91
2023/12/12 09:28:04;;;;;;;17.70;10.50;;;;;;;5.22;100.00;99738.77;217320;1294;138710;-91
2023/12/12 09:33:04;;;;;;;15.70;8.90;;;;;;;5.26;100.00;99737.51;216074;1294;140282;-91
2023/12/12 09:38:05;;;;;;;19.20;9.70;;;;;;;5.25;100.00;99736.80;213691;1294;138806;-90
2023/12/12 09:43:10;;;;;;;20.60;10.30;;;;;;;5.28;100.00;99729.04;213209;1294;140525;-90
2023/12/12 09:48:12;;;;;;;21.60;11.30;;;;;;;5.26;100.00;99717.72;213745;1295;160847;-92
2023/12/12 09:53:13;;;;;;;23.70;13.10;;;;;;;5.33;100.00;99720.57;213219;1292;140182;-91
2023/12/12 09:58:14;;;;;;;22.20;11.00;;;;;;;5.33;100.00;99718.54;214195;1296;138914;-91
2023/12/12 10:03:15;;;;;;;21.10;12.50;;;;;;;5.36;100.00;99712.69;213790;1293;140324;-91
2023/12/12 10:08:18;;;;;;;22.90;12.20;;;;;;;5.39;100.00;99711.58;214431;1297;139612;-91
2023/12/12 10:13:19;;;;;;;20.50;10.80;;;;;;;5.44;100.00;99714.80;214546;1294;141344;-91
2023/12/12 10:18:22;;;;;;;22.10;11.20;;;;;;;5.44;100.00;99711.85;215172;1291;96635;-91
2023/12/12 10:23:23;;;;;;;21.10;11.80;;;;;;;5.48;100.00;99714.95;214247;1288;140019;-91
2023/12/12 10:28:24;;;;;;;25.30;13.10;;;;;;;5.54;100.00;99716.57;215014;1292;138741;-92
2023/12/12 10:33:27;;;;;;;26.60;13.80;;;;;;;5.58;100.00;99717.12;214774;1288;140828;-93
2023/12/12 10:38:28;;;;;;;24.60;12.50;;;;;;;5.65;100.00;99713.89;215483;1291;139720;-92
2023/12/12 10:43:29;;;;;;;26.70;14.00;;;;;;;5.69;100.00;99714.44;214650;1288;140598;-91
2023/12/12 10:48:31;;;;;;;25.50;14.30;;;;;;;5.72;100.00;99709.43;215614;1288;138950;-92
2023/12/12 10:53:35;;;;;;;24.70;13.60;;;;;;;5.75;100.00;99702.09;214911;1288;141054;-93
2023/12/12 10:58:37;;;;;;;28.50;15.50;;;;;;;5.81;100.00;99694.86;216591;1292;138894;-92
2023/12/12 11:03:38;;;;;;;27.90;16.60;;;;;;;5.88;100.00;99696.02;214924;1288;140454;-93
2023/12/12 11:08:42;;;;;;;27.60;15.10;;;;;;;5.95;100.00;99701.45;216325;1290;138975;-92
2023/12/12 11:13:44;;;;;;;22.40;12.60;;;;;;;6.00;100.00;99711.38;217215;1292;139995;-92
2023/12/12 11:18:47;;;;;;;23.60;12.70;;;;;;;6.07;100.00;99718.06;216878;1292;139100;-92
2023/12/12 11:23:52;;;;;;;22.20;13.50;;;;;;;6.10;100.00;99719.91;214156;1290;140839;-90
2023/12/12 11:28:54;;;;;;;22.90;13.10;;;;;;;6.16;100.00;99718.05;214591;1288;139562;-92
2023/12/12 11:34:06;;;;;;;21.40;12.60;;;;;;;6.17;100.00;99717.70;214131;1292;139813;-91
2023/12/12 11:39:08;;;;;;;19.20;11.20;;;;;;;6.18;100.00;99723.70;214717;1289;139370;-91
2023/12/12 11:44:10;;;;;;;18.20;10.80;;;;;;;6.19;100.00;99728.48;214346;1292;141221;-91
2023/12/12 11:49:21;;;;;;;17.90;9.80;;;;;;;6.21;100.00;99729.86;214974;1288;138950;-93
2023/12/12 11:54:23;;;;;;;20.20;9.50;;;;;;;6.21;100.00;99731.20;217246;1292;140973;-92
2023/12/12 11:59:25;;;;;;;19.00;10.30;;;;;;;6.24;100.00;99725.21;214872;1292;138715;-92
2023/12/12 12:04:26;;;;;;;17.70;9.40;;;;;;;6.27;100.00;99728.71;215778;1289;139498;-90
2023/12/12 12:09:26;;;;;;;15.00;9.20;;;;;;;6.28;100.00;99734.34;214848;1291;138752;-91
2023/12/12 12:14:27;;;;;;;15.00;8.70;;;;;;;6.25;100.00;99734.99;214703;1293;140257;-90
2023/12/12 12:19:37;;;;;;;14.10;8.50;;;;;;;6.23;100.00;99734.48;216005;1288;138769;-92
2023/12/12 12:24:45;;;;;;;17.20;9.10;;;;;;;6.24;100.00;99733.03;215338;1292;140932;-92
2023/12/12 12:30:08;;;;;;;20.20;10.00;;;;;;;6.25;100.00;99727.81;215229;1292;140289;-91
2023/12/12 12:35:09;;;;;;;18.20;9.90;;;;;;;6.29;100.00;99735.45;215616;1292;139338;-91
2023/12/12 12:40:11;;;;;;;21.70;10.80;;;;;;;6.29;100.00;99727.02;215420;1288;140581;-91
2023/12/12 12:45:12;;;;;;;17.30;9.50;;;;;;;6.31;100.00;99722.44;215838;1288;138911;-91
2023/12/12 12:50:12;;;;;;;20.50;10.90;;;;;;;6.32;100.00;99720.45;215720;1288;140771;-91
2023/12/12 12:55:13;;;;;;;20.40;11.30;;;;;;;6.35;100.00;99727.13;217032;1288;138895;-90
2023/12/12 13:00:17;;;;;;;21.90;12.20;;;;;;;6.37;100.00;99727.31;217410;1289;142621;-91
2023/12/12 13:05:18;;;;;;;21.60;12.50;;;;;;;6.36;100.00;99728.39;216237;1290;138708;-90
2023/12/12 13:10:18;;;;;;;20.90;11.40;;;;;;;6.37;100.00;99724.73;214094;1292;140994;-90
2023/12/12 13:15:19;;;;;;;18.80;10.20;;;;;;;6.35;100.00;99726.73;214594;1293;139056;-90
2023/12/12 13:20:20;;;;;;;22.70;12.10;;;;;;;6.31;100.00;99725.89;213790;1294;140661;-91
2023/12/12 13:25:20;;;;;;;23.40;13.70;;;;;;;6.29;100.00;99724.92;214202;1290;138892;-90
2023/12/12 13:30:21;;;;;;;23.60;14.30;;;;;;;6.29;100.00;99723.58;213603;1289;140953;-90
2023/12/12 13:35:22;;;;;;;24.00;13.90;;;;;;;6.28;100.00;99718.10;214347;1292;139613;-90
2023/12/12 13:40:23;;;;;;;20.70;12.30;;;;;;;6.23;100.00;99716.85;213716;1301;140812;-88
2023/12/12 13:45:24;;;;;;;21.50;12.50;;;;;;;6.22;100.00;99715.27;214736;1292;139077;-91
2023/12/12 13:50:25;;;;;;;26.00;14.40;;;;;;;6.20;100.00;99714.77;214571;1292;140452;-91
2023/12/12 13:55:26;;;;;;;23.70;13.70;;;;;;;6.19;100.00;99708.91;214899;1292;138983;-90
2023/12/12 14:00:27;;;;;;;25.20;14.40;;;;;;;6.20;100.00;99716.26;214380;1292;140104;-90
2023/12/12 14:05:28;;;;;;;26.10;14.20;;;;;;;6.20;100.00;99718.92;218519;1288;96336;-91
2023/12/12 14:10:31;;;;;;;26.70;15.40;;;;;;;6.22;100.00;99723.86;216556;1290;140335;-90
2023/12/12 14:15:32;;;;;;;23.00;13.10;;;;;;;6.19;100.00;99730.75;215559;1287;138896;-92
2023/12/12 14:20:32;;;;;;;26.50;14.20;;;;;;;6.12;100.00;99729.23;215001;1292;141578;-91
2023/12/12 14:25:33;;;;;;;25.90;13.90;;;;;;;6.12;100.00;99736.02;215645;1292;139349;-89
2023/12/12 14:30:33;;;;;;;24.90;14.20;;;;;;;6.13;100.00;99737.52;214892;1288;140267;-90
2023/12/12 14:35:34;;;;;;;26.60;13.60;;;;;;;6.10;100.00;99731.84;215456;1289;98129;-91
2023/12/12 14:40:35;;;;;;;31.60;16.30;;;;;;;6.05;100.00;99725.20;214939;1289;140149;-90
2023/12/12 14:45:36;;;;;;;30.40;16.90;;;;;;;5.98;100.00;99722.73;215393;1288;139617;-93
2023/12/12 14:50:39;;;;;;;33.40;18.80;;;;;;;5.94;100.00;99724.38;214720;1288;140482;-91
2023/12/12 14:55:40;;;;;;;31.50;17.00;;;;;;;5.95;100.00;99726.27;215253;1288;139153;-92
2023/12/12 15:00:41;;;;;;;37.00;19.30;;;;;;;5.97;100.00;99730.98;214993;1293;140070;-91
2023/12/12 15:05:41;;;;;;;36.60;19.80;;;;;;;5.94;100.00;99729.38;215373;1289;106069;-90
2023/12/12 16:31:31;;;;;;;49.30;24.10;;;;;;;5.40;100.00;99693.99;214751;1295;139878;-92
2023/12/12 16:36:31;;;;;;;39.60;23.00;;;;;;;5.37;100.00;99695.71;214576;1297;98515;-92
2023/12/12 16:41:32;;;;;;;46.00;24.90;;;;;;;5.33;100.00;99695.80;213312;1298;141973;-92
2023/12/12 16:46:33;;;;;;;65.90;31.90;;;;;;;5.32;100.00;99695.32;214093;1296;139713;-93
2023/12/12 16:51:33;;;;;;;54.30;26.70;;;;;;;5.36;100.00;99693.52;214631;1296;140304;-90
2023/12/12 16:56:33;;;;;;;49.80;27.10;;;;;;;5.36;100.00;99697.34;214421;1298;139208;-90
2023/12/12 17:01:34;;;;;;;52.90;29.00;;;;;;;5.32;100.00;99689.06;213490;1298;140863;-90
2023/12/12 17:06:35;;;;;;;64.40;33.80;;;;;;;5.28;100.00;99684.80;214113;1296;97915;-90
2023/12/12 17:11:36;;;;;;;65.50;30.40;;;;;;;5.25;100.00;99682.94;213713;1298;140663;-90
2023/12/12 17:16:37;;;;;;;63.90;33.40;;;;;;;5.25;100.00;99681.30;214065;1295;140612;-91
2023/12/12 17:21:37;;;;;;;74.80;35.70;;;;;;;5.29;100.00;99678.56;213623;1298;141587;-91
2023/12/12 17:26:37;;;;;;;79.40;41.80;;;;;;;5.31;100.00;99676.43;213926;1295;139055;-92
2023/12/12 17:31:38;;;;;;;76.10;38.40;;;;;;;5.28;100.00;99677.69;213498;1296;140968;-91
2023/12/12 17:36:39;;;;;;;67.70;37.40;;;;;;;5.26;100.00;99673.45;214167;1298;98137;-91
2023/12/12 17:41:39;;;;;;;75.90;40.10;;;;;;;5.28;100.00;99679.88;213689;1298;140693;-91
2023/12/12 17:46:41;;;;;;;66.70;35.20;;;;;;;5.26;100.00;99681.86;214026;1299;138834;-91
2023/12/12 17:51:42;;;;;;;56.90;31.20;;;;;;;5.22;100.00;99676.88;213629;1297;140954;-91
2023/12/12 17:56:43;;;;;;;50.90;28.80;;;;;;;5.21;100.00;99681.98;214061;1299;139717;-91
2023/12/12 18:01:43;;;;;;;50.80;27.60;;;;;;;5.20;100.00;99677.68;213414;1300;140448;-90
2023/12/12 18:06:44;;;;;;;50.90;27.40;;;;;;;5.20;100.00;99674.27;214132;1298;97938;-91
2023/12/12 18:11:44;;;;;;;42.30;23.30;;;;;;;5.21;100.00;99669.23;214562;1296;141709;-91
2023/12/12 18:16:45;;;;;;;64.80;32.40;;;;;;;5.21;100.00;99664.70;214164;1297;139037;-90
2023/12/12 18:21:45;;;;;;;85.10;39.70;;;;;;;5.24;100.00;99663.59;214037;1300;140363;-90
2023/12/12 18:26:46;;;;;;;96.60;43.20;;;;;;;5.20;100.00;99654.54;214985;1295;140316;-96
2023/12/12 18:31:48;;;;;;;77.70;39.90;;;;;;;5.18;100.00;99647.80;214153;1298;152932;-94
2023/12/12 18:36:49;;;;;;;78.80;38.50;;;;;;;5.14;100.00;99644.52;214700;1299;97906;-94
2023/12/12 18:41:50;;;;;;;142.00;54.70;;;;;;;5.14;100.00;99641.56;214287;1298;140378;-94
2023/12/12 18:46:51;;;;;;;145.70;65.70;;;;;;;5.16;100.00;99643.16;214633;1295;139543;-95
2023/12/12 18:51:54;;;;;;;168.70;69.20;;;;;;;5.15;100.00;99643.61;214331;1296;140401;-94
2023/12/12 18:56:55;;;;;;;97.00;43.10;;;;;;;5.13;100.00;99638.90;214458;1295;139068;-94
2023/12/12 19:01:55;;;;;;;49.10;23.10;;;;;;;5.10;100.00;99631.89;214234;1296;141635;-94
2023/12/12 19:07:00;;;;;;;48.90;24.20;;;;;;;5.06;100.00;99634.46;215089;1296;98584;-94
2023/12/12 19:12:00;;;;;;;55.10;26.70;;;;;;;5.04;100.00;99632.16;214304;1295;139346;-94
2023/12/12 19:17:02;;;;;;;124.30;48.80;;;;;;;5.05;100.00;99625.40;214830;1298;138887;-94
2023/12/12 19:22:03;;;;;;;55.00;27.90;;;;;;;5.03;100.00;99621.78;214281;1294;140048;-93
2023/12/12 19:27:04;;;;;;;73.00;33.30;;;;;;;4.94;100.00;99616.30;214806;1297;138956;-94
2023/12/12 19:32:06;;;;;;;83.60;37.50;;;;;;;4.87;100.00;99608.30;213956;1295;140209;-92
2023/12/12 19:37:07;;;;;;;61.50;28.50;;;;;;;4.84;100.00;99602.15;214591;1299;98341;-95
2023/12/12 19:42:09;;;;;;;61.70;29.80;;;;;;;4.80;100.00;99597.63;213998;1296;140316;-93
2023/12/12 19:47:11;;;;;;;51.90;25.30;;;;;;;4.78;100.00;99591.52;214382;1296;138960;-94
2023/12/12 19:52:12;;;;;;;51.80;28.50;;;;;;;4.76;100.00;99593.96;213954;1295;141122;-93
2023/12/12 19:57:14;;;;;;;52.70;28.00;;;;;;;4.75;100.00;99597.06;214429;1296;139046;-95
2023/12/12 20:02:15;;;;;;;52.70;26.40;;;;;;;4.74;100.00;99596.02;213969;1298;140564;-92
2023/12/12 20:07:16;;;;;;;68.80;27.50;;;;;;;4.75;100.00;99589.89;214781;1296;139334;-92
2023/12/12 20:12:16;;;;;;;67.60;26.30;;;;;;;4.72;100.00;99593.67;213703;1295;140098;-93
2023/12/12 20:17:17;;;;;;;45.90;22.40;;;;;;;4.71;100.00;99594.27;214064;1295;138730;-93
2023/12/12 20:22:20;;;;;;;81.20;31.80;;;;;;;4.69;100.00;99590.72;213514;1296;140055;-93
2023/12/12 20:27:21;;;;;;;48.80;22.40;;;;;;;4.68;100.00;99587.81;214151;1295;139640;-95
2023/12/12 20:32:22;;;;;;;61.70;25.70;;;;;;;4.68;100.00;99586.86;215217;1296;141112;-95
2023/12/12 20:37:22;;;;;;;92.80;35.10;;;;;;;4.70;100.00;99591.73;214318;1299;138993;-94
2023/12/12 20:42:23;;;;;;;124.40;45.40;;;;;;;4.72;100.00;99591.55;213705;1296;140318;-92
2023/12/12 20:47:24;;;;;;;93.50;38.10;;;;;;;4.74;100.00;99597.91;214248;1297;140122;-93
2023/12/12 20:52:25;;;;;;;90.60;37.60;;;;;;;4.72;100.00;99594.73;213681;1296;140298;-91
2023/12/12 20:57:29;;;;;;;109.20;44.60;;;;;;;4.69;100.00;99590.63;213913;1297;140053;-92
2023/12/12 21:02:29;;;;;;;127.90;49.10;;;;;;;4.67;100.00;99597.91;215353;1295;140576;-90
2023/12/12 21:07:30;;;;;;;73.40;35.80;;;;;;;4.67;100.00;99596.12;215087;1295;140389;-91
2023/12/12 21:12:30;;;;;;;99.90;39.50;;;;;;;4.68;100.00;99597.23;213688;1299;140189;-92
2023/12/12 21:17:33;;;;;;;123.60;52.00;;;;;;;4.71;100.00;99599.32;214049;1295;140036;-93
2023/12/12 21:22:39;;;;;;;105.50;46.70;;;;;;;4.74;100.00;99602.50;213521;1296;140546;-92
2023/12/12 21:27:40;;;;;;;96.80;44.10;;;;;;;4.73;100.00;99596.41;213898;1295;139832;-91
2023/12/12 21:32:41;;;;;;;116.30;50.50;;;;;;;4.71;100.00;99594.66;213763;1297;141239;-91
2023/12/12 21:37:41;;;;;;;110.80;47.60;;;;;;;4.70;100.00;99592.13;213982;1296;139857;-93
2023/12/12 21:42:42;;;;;;;117.70;49.20;;;;;;;4.74;100.00;99594.31;213702;1294;144329;-89
2023/12/12 21:47:43;;;;;;;101.90;45.30;;;;;;;4.75;100.00;99587.95;214209;1293;214418;-90
2023/12/12 21:52:44;;;;;;;98.00;42.10;;;;;;;4.76;100.00;99588.35;214135;1296;140534;-90
2023/12/12 21:57:46;;;;;;;105.70;48.90;;;;;;;4.77;100.00;99587.30;214375;1296;138989;-90
2023/12/12 22:02:47;;;;;;;87.10;38.90;;;;;;;4.74;100.00;99577.73;213573;1296;140276;-90
2023/12/12 22:07:48;;;;;;;117.30;52.50;;;;;;;4.73;100.00;99574.36;214268;1293;139490;-92
2023/12/12 22:12:48;;;;;;;115.20;50.10;;;;;;;4.74;100.00;99574.23;213906;1293;139812;-91
2023/12/12 22:17:49;;;;;;;102.20;47.30;;;;;;;4.76;100.00;99571.38;214168;1296;139274;-92
2023/12/12 22:22:49;;;;;;;105.70;47.10;;;;;;;4.79;100.00;99561.79;213653;1295;140524;-92
2023/12/12 22:27:49;;;;;;;97.30;43.90;;;;;;;4.79;100.00;99568.32;214168;1295;139236;-91
2023/12/12 22:32:52;;;;;;;98.60;44.30;;;;;;;4.77;100.00;99556.16;213803;1294;140316;-92
2023/12/12 22:37:52;;;;;;;89.80;40.80;;;;;;;4.77;100.00;99554.27;214606;1293;138977;-92
2023/12/12 22:42:52;;;;;;;84.20;38.10;;;;;;;4.77;100.00;99555.20;213886;1296;141368;-92
2023/12/12 22:47:53;;;;;;;79.20;37.20;;;;;;;4.73;100.00;99549.85;214380;1295;139708;-92
2023/12/12 22:52:53;;;;;;;75.20;33.80;;;;;;;4.69;100.00;99544.23;213815;1295;141752;-91
2023/12/12 22:57:54;;;;;;;75.80;33.80;;;;;;;4.67;100.00;99543.34;214235;1296;139430;-91
2023/12/12 23:02:54;;;;;;;71.30;32.90;;;;;;;4.68;100.00;99543.35;213826;1296;140413;-91
2023/12/12 23:07:55;;;;;;;142.70;74.60;;;;;;;4.67;100.00;99546.67;214188;1293;140259;-91
2023/12/12 23:12:56;;;;;;;317.00;105.60;;;;;;;4.65;100.00;99542.20;213824;1296;141419;-90
2023/12/12 23:17:56;;;;;;;132.10;54.00;;;;;;;4.63;100.00;99530.24;214309;1296;139164;-91
2023/12/12 23:22:58;;;;;;;93.80;40.90;;;;;;;4.61;100.00;99523.36;213805;1296;140910;-91
2023/12/12 23:27:58;;;;;;;111.90;44.50;;;;;;;4.61;100.00;99510.12;214251;1296;139664;-89
2023/12/12 23:32:59;;;;;;;174.60;84.10;;;;;;;4.59;100.00;99496.16;214708;1296;140985;-91
2023/12/12 23:37:59;;;;;;;204.90;68.50;;;;;;;4.59;100.00;99484.00;214516;1296;139720;-91
2023/12/12 23:42:59;;;;;;;141.30;48.80;;;;;;;4.57;100.00;99478.27;213840;1296;140646;-90
2023/12/12 23:48:00;;;;;;;97.30;40.90;;;;;;;4.56;100.00;99470.54;214250;1295;138914;-91
2023/12/12 23:53:00;;;;;;;135.20;49.30;;;;;;;4.53;100.00;99459.35;213876;1295;140497;-91
2023/12/12 23:58:01;;;;;;;166.90;66.50;;;;;;;4.49;100.00;99453.83;214311;1296;139753;-90
